Česky Dansk Deutsch English Español Suomi Français Magyar Italiano Nederlands norsk Polski Português svenska Türkçe

 

Het Weer

Villamontes (Bolivië)

20:00, 20 juli 2016 (GMT)

NWNNE
WE
SWSSE
Home            
Villamontes Yacuiba Tarija Camiri Tartagal Aerodrome Nueva Asuncion Oran Aerodrome La Quiaca Observatorio Potosi Mariscal Estigarribia Sucre Rivadavia Santa Cruz / El Trompillo Jujuy Aerodrome Viru-Viru Salta Aerodrome San Jose De Chiquitos Las Lomitas Robore Cochabamba Oruro San Javier Concepcion

Om een weerknop op uw website of weblog te plaatsen, copieer onderstaande code en plak die in uw pagina. In het eerste vakje staat HTML-code, in het tweede vakje UBB-code.


Add to Google

Details

Wind speed:2 bf, 5 kn, 2.6 m/s, 5.8 miles/h, 9.3 km/h
Wind direction:S, 180°
Visibility:Greater than 10000 m, 10 km, 32800 ft, 6.2 miles
Temperature:22°C, 72°F
Gefühlte Temperatur:25°C, 77°F
Dew-point:7°C, 45°F
Atmospheric pressure:1018 hPa, 763.6 mmHg, 30.06 inHg, 1.005 atm
Relative humidity:37.9 %
METAR:SLVM 202000Z 18005KT 9999 NSC 22/07 Q1018

Snelkoppelingen

Actuele weersinformatie van de hele wereld. Voeg locaties toe met het plus (+) symbool. Deze snelkoppelingen kunnen worden toegevoegd aan Google.

Lid van de Technetium groep

website free tracking
StatCounter NetStat W3C Validator

24-11-2020 09:15:44
astro.technetium.be money.technetium.be phote.technetium.be tafeltennistafel.technetium.be www.ligfiets.net